sensor_id;sensor_type;location;lat;lon;timestamp;pressure;altitude;pressure_sealevel;temperature;humidity
42285;BME280;27942;47.510;18.966;2022-10-31T00:00:48;98251.91;;;9.44;100.00
42285;BME280;27942;47.510;18.966;2022-10-31T00:03:14;98249.97;;;9.44;100.00
42285;BME280;27942;47.510;18.966;2022-10-31T00:05:47;98241.19;;;9.47;100.00
42285;BME280;27942;47.510;18.966;2022-10-31T00:08:13;98240.13;;;9.40;100.00
42285;BME280;27942;47.510;18.966;2022-10-31T00:10:40;98258.25;;;9.48;100.00
42285;BME280;27942;47.510;18.966;2022-10-31T00:13:06;98252.47;;;9.50;100.00
42285;BME280;27942;47.510;18.966;2022-10-31T00:15:33;98244.25;;;9.46;100.00
42285;BME280;27942;47.510;18.966;2022-10-31T00:17:58;98253.09;;;9.55;100.00
42285;BME280;27942;47.510;18.966;2022-10-31T00:20:24;98247.94;;;9.41;100.00
42285;BME280;27942;47.510;18.966;2022-10-31T00:22:49;98243.97;;;9.39;100.00
42285;BME280;27942;47.510;18.966;2022-10-31T00:25:14;98239.09;;;9.32;100.00
42285;BME280;27942;47.510;18.966;2022-10-31T00:27:40;98242.47;;;9.29;100.00
42285;BME280;27942;47.510;18.966;2022-10-31T00:30:06;98234.97;;;9.26;100.00
42285;BME280;27942;47.510;18.966;2022-10-31T00:32:32;98238.81;;;9.25;100.00
42285;BME280;27942;47.510;18.966;2022-10-31T00:34:57;98241.00;;;9.32;100.00
42285;BME280;27942;47.510;18.966;2022-10-31T00:37:22;98255.47;;;9.36;100.00
42285;BME280;27942;47.510;18.966;2022-10-31T00:39:48;98238.56;;;9.18;100.00
42285;BME280;27942;47.510;18.966;2022-10-31T00:42:14;98241.72;;;9.20;100.00
42285;BME280;27942;47.510;18.966;2022-10-31T00:44:40;98231.44;;;9.13;100.00
42285;BME280;27942;47.510;18.966;2022-10-31T00:47:05;98230.88;;;9.20;100.00
42285;BME280;27942;47.510;18.966;2022-10-31T00:49:30;98240.75;;;9.25;100.00
42285;BME280;27942;47.510;18.966;2022-10-31T00:51:56;98223.41;;;9.17;100.00
42285;BME280;27942;47.510;18.966;2022-10-31T00:54:21;98224.91;;;9.27;100.00
42285;BME280;27942;47.510;18.966;2022-10-31T00:56:46;98240.81;;;9.37;100.00
42285;BME280;27942;47.510;18.966;2022-10-31T00:59:12;98234.53;;;9.24;100.00
42285;BME280;27942;47.510;18.966;2022-10-31T01:01:37;98230.09;;;9.19;100.00
42285;BME280;27942;47.510;18.966;2022-10-31T01:04:02;98233.94;;;9.18;100.00
42285;BME280;27942;47.510;18.966;2022-10-31T01:06:28;98239.38;;;9.18;100.00
42285;BME280;27942;47.510;18.966;2022-10-31T01:08:53;98232.72;;;9.07;100.00
42285;BME280;27942;47.510;18.966;2022-10-31T01:11:21;98240.22;;;9.10;100.00
42285;BME280;27942;47.510;18.966;2022-10-31T01:13:49;98240.88;;;9.07;100.00
42285;BME280;27942;47.510;18.966;2022-10-31T01:16:17;98236.31;;;8.99;100.00
42285;BME280;27942;47.510;18.966;2022-10-31T01:18:43;98226.06;;;9.05;100.00
42285;BME280;27942;47.510;18.966;2022-10-31T01:21:11;98219.59;;;8.97;100.00
42285;BME280;27942;47.510;18.966;2022-10-31T01:23:37;98234.84;;;8.81;100.00
42285;BME280;27942;47.510;18.966;2022-10-31T01:28:30;98237.69;;;8.84;100.00
42285;BME280;27942;47.510;18.966;2022-10-31T01:31:00;98223.88;;;8.77;100.00
42285;BME280;27942;47.510;18.966;2022-10-31T01:33:25;98216.19;;;8.79;100.00
42285;BME280;27942;47.510;18.966;2022-10-31T01:35:50;98217.88;;;8.72;100.00
42285;BME280;27942;47.510;18.966;2022-10-31T01:38:16;98210.53;;;8.72;100.00
42285;BME280;27942;47.510;18.966;2022-10-31T01:40:41;98206.03;;;8.76;100.00
42285;BME280;27942;47.510;18.966;2022-10-31T01:43:12;98208.41;;;8.78;100.00
42285;BME280;27942;47.510;18.966;2022-10-31T01:45:38;98219.53;;;8.85;100.00
42285;BME280;27942;47.510;18.966;2022-10-31T01:48:03;98216.19;;;8.79;100.00
42285;BME280;27942;47.510;18.966;2022-10-31T01:50:35;98218.59;;;8.81;100.00
42285;BME280;27942;47.510;18.966;2022-10-31T01:53:03;98219.63;;;8.67;100.00
42285;BME280;27942;47.510;18.966;2022-10-31T01:55:38;98211.38;;;8.64;100.00
42285;BME280;27942;47.510;18.966;2022-10-31T01:58:11;98208.50;;;8.60;100.00
42285;BME280;27942;47.510;18.966;2022-10-31T02:00:39;98214.72;;;8.61;100.00
42285;BME280;27942;47.510;18.966;2022-10-31T02:03:05;98211.38;;;8.64;100.00
42285;BME280;27942;47.510;18.966;2022-10-31T02:05:31;98210.03;;;8.70;100.00
42285;BME280;27942;47.510;18.966;2022-10-31T02:08:07;98217.53;;;8.73;100.00
42285;BME280;27942;47.510;18.966;2022-10-31T02:10:36;98214.38;;;8.71;100.00
42285;BME280;27942;47.510;18.966;2022-10-31T02:13:05;98208.28;;;8.74;100.00
42285;BME280;27942;47.510;18.966;2022-10-31T02:15:32;98197.91;;;8.76;100.00
42285;BME280;27942;47.510;18.966;2022-10-31T02:17:58;98199.16;;;8.79;100.00
42285;BME280;27942;47.510;18.966;2022-10-31T02:20:25;98192.81;;;8.75;100.00
42285;BME280;27942;47.510;18.966;2022-10-31T02:28:28;98203.91;;;9.03;100.00
42285;BME280;27942;47.510;18.966;2022-10-31T02:39:02;98211.06;;;9.07;100.00
42285;BME280;27942;47.510;18.966;2022-10-31T02:41:34;98216.28;;;9.12;100.00
42285;BME280;27942;47.510;18.966;2022-10-31T02:44:07;98205.84;;;9.02;100.00
42285;BME280;27942;47.510;18.966;2022-10-31T02:46:59;98214.09;;;9.06;100.00
42285;BME280;27942;47.510;18.966;2022-10-31T02:49:50;98217.22;;;8.95;100.00
42285;BME280;27942;47.510;18.966;2022-10-31T02:52:20;98215.53;;;9.03;100.00
42285;BME280;27942;47.510;18.966;2022-10-31T02:54:47;98218.97;;;9.12;100.00
42285;BME280;27942;47.510;18.966;2022-10-31T02:57:13;98222.63;;;9.16;100.00
42285;BME280;27942;47.510;18.966;2022-10-31T02:59:47;98218.97;;;9.12;100.00
42285;BME280;27942;47.510;18.966;2022-10-31T03:03:01;98218.19;;;9.12;100.00
42285;BME280;27942;47.510;18.966;2022-10-31T03:10:59;98223.50;;;9.08;100.00
42285;BME280;27942;47.510;18.966;2022-10-31T03:18:37;98227.84;;;9.21;100.00
42285;BME280;27942;47.510;18.966;2022-10-31T03:21:09;98219.47;;;9.14;100.00
42285;BME280;27942;47.510;18.966;2022-10-31T03:23:36;98228.25;;;9.11;100.00
42285;BME280;27942;47.510;18.966;2022-10-31T03:26:05;98230.75;;;9.16;100.00
42285;BME280;27942;47.510;18.966;2022-10-31T03:28:36;98223.31;;;9.13;100.00
42285;BME280;27942;47.510;18.966;2022-10-31T03:31:02;98236.75;;;9.22;100.00
42285;BME280;27942;47.510;18.966;2022-10-31T03:33:38;98234.78;;;9.31;100.00
42285;BME280;27942;47.510;18.966;2022-10-31T03:36:08;98234.25;;;9.17;100.00
42285;BME280;27942;47.510;18.966;2022-10-31T03:38:36;98238.22;;;9.19;100.00
42285;BME280;27942;47.510;18.966;2022-10-31T03:41:05;98238.56;;;9.18;100.00
42285;BME280;27942;47.510;18.966;2022-10-31T03:43:37;98234.06;;;9.22;100.00
42285;BME280;27942;47.510;18.966;2022-10-31T03:46:05;98226.94;;;9.17;100.00
42285;BME280;27942;47.510;18.966;2022-10-31T03:48:31;98236.44;;;9.24;100.00
42285;BME280;27942;47.510;18.966;2022-10-31T03:51:07;98246.38;;;9.19;100.00
42285;BME280;27942;47.510;18.966;2022-10-31T03:53:39;98247.75;;;9.26;100.00
42285;BME280;27942;47.510;18.966;2022-10-31T03:59:20;98243.66;;;9.19;100.00
42285;BME280;27942;47.510;18.966;2022-10-31T04:01:51;98236.44;;;9.03;100.00
42285;BME280;27942;47.510;18.966;2022-10-31T04:04:19;98242.78;;;9.07;100.00
42285;BME280;27942;47.510;18.966;2022-10-31T04:06:45;98248.78;;;9.12;100.00
42285;BME280;27942;47.510;18.966;2022-10-31T04:09:13;98240.22;;;9.10;100.00
42285;BME280;27942;47.510;18.966;2022-10-31T04:11:43;98243.50;;;9.16;100.00
42285;BME280;27942;47.510;18.966;2022-10-31T04:14:11;98245.69;;;9.02;100.00
42285;BME280;27942;47.510;18.966;2022-10-31T04:16:39;98240.41;;;9.05;100.00
42285;BME280;27942;47.510;18.966;2022-10-31T04:19:06;98239.22;;;8.94;100.00
42285;BME280;27942;47.510;18.966;2022-10-31T04:21:32;98234.97;;;8.84;100.00
42285;BME280;27942;47.510;18.966;2022-10-31T04:23:57;98256.41;;;8.98;100.00
42285;BME280;27942;47.510;18.966;2022-10-31T04:26:23;98249.59;;;8.92;100.00
42285;BME280;27942;47.510;18.966;2022-10-31T04:28:48;98254.22;;;8.91;100.00
42285;BME280;27942;47.510;18.966;2022-10-31T04:31:14;98259.91;;;8.99;100.00
42285;BME280;27942;47.510;18.966;2022-10-31T04:33:39;98253.50;;;9.03;100.00
42285;BME280;27942;47.510;18.966;2022-10-31T04:36:05;98264.94;;;9.09;100.00
42285;BME280;27942;47.510;18.966;2022-10-31T04:38:30;98266.34;;;9.15;100.00
42285;BME280;27942;47.510;18.966;2022-10-31T04:40:56;98255.16;;;9.16;100.00
42285;BME280;27942;47.510;18.966;2022-10-31T04:43:22;98253.13;;;9.13;100.00
42285;BME280;27942;47.510;18.966;2022-10-31T04:45:47;98255.50;;;9.15;100.00
42285;BME280;27942;47.510;18.966;2022-10-31T04:48:13;98262.56;;;9.07;100.00
42285;BME280;27942;47.510;18.966;2022-10-31T04:50:38;98259.06;;;9.07;100.00
42285;BME280;27942;47.510;18.966;2022-10-31T04:53:18;98252.84;;;8.85;100.00
42285;BME280;27942;47.510;18.966;2022-10-31T04:55:44;98262.41;;;8.83;100.00
42285;BME280;27942;47.510;18.966;2022-10-31T04:58:09;98254.28;;;8.83;100.00
42285;BME280;27942;47.510;18.966;2022-10-31T05:00:34;98256.34;;;8.86;100.00
42285;BME280;27942;47.510;18.966;2022-10-31T05:03:00;98257.88;;;8.95;100.00
42285;BME280;27942;47.510;18.966;2022-10-31T05:05:28;98266.78;;;8.96;100.00
42285;BME280;27942;47.510;18.966;2022-10-31T05:07:53;98257.06;;;8.95;100.00
42285;BME280;27942;47.510;18.966;2022-10-31T05:10:26;98263.53;;;9.03;100.00
42285;BME280;27942;47.510;18.966;2022-10-31T05:12:53;98265.00;;;9.00;100.00
42285;BME280;27942;47.510;18.966;2022-10-31T05:15:21;98263.44;;;8.99;100.00
42285;BME280;27942;47.510;18.966;2022-10-31T05:17:47;98252.84;;;8.85;100.00
42285;BME280;27942;47.510;18.966;2022-10-31T05:20:14;98258.16;;;8.73;100.00
42285;BME280;27942;47.510;18.966;2022-10-31T05:22:44;98253.81;;;8.81;100.00
42285;BME280;27942;47.510;18.966;2022-10-31T05:25:11;98246.78;;;8.80;100.00
42285;BME280;27942;47.510;18.966;2022-10-31T05:27:41;98258.38;;;8.89;100.00
42285;BME280;27942;47.510;18.966;2022-10-31T05:30:07;98261.22;;;8.92;100.00
42285;BME280;27942;47.510;18.966;2022-10-31T05:32:40;98278.22;;;9.02;100.00
42285;BME280;27942;47.510;18.966;2022-10-31T05:35:07;98270.22;;;9.05;100.00
42285;BME280;27942;47.510;18.966;2022-10-31T05:37:34;98269.63;;;9.00;100.00
42285;BME280;27942;47.510;18.966;2022-10-31T05:40:01;98277.88;;;9.03;100.00
42285;BME280;27942;47.510;18.966;2022-10-31T05:42:26;98263.69;;;9.06;100.00
42285;BME280;27942;47.510;18.966;2022-10-31T05:44:52;98291.06;;;9.13;100.00
42285;BME280;27942;47.510;18.966;2022-10-31T05:47:17;98286.09;;;9.15;100.00
42285;BME280;27942;47.510;18.966;2022-10-31T05:49:42;98279.44;;;9.13;100.00
42285;BME280;27942;47.510;18.966;2022-10-31T05:52:08;98269.50;;;9.17;100.00
42285;BME280;27942;47.510;18.966;2022-10-31T05:54:33;98287.63;;;9.25;100.00
42285;BME280;27942;47.510;18.966;2022-10-31T05:56:58;98272.47;;;9.24;100.00
42285;BME280;27942;47.510;18.966;2022-10-31T05:59:23;98274.19;;;9.08;100.00
42285;BME280;27942;47.510;18.966;2022-10-31T06:01:49;98269.09;;;9.06;100.00
42285;BME280;27942;47.510;18.966;2022-10-31T06:04:14;98284.31;;;9.19;100.00
42285;BME280;27942;47.510;18.966;2022-10-31T06:06:39;98287.41;;;9.30;100.00
42285;BME280;27942;47.510;18.966;2022-10-31T06:09:05;98282.47;;;9.32;100.00
42285;BME280;27942;47.510;18.966;2022-10-31T06:11:30;98290.91;;;9.31;100.00
42285;BME280;27942;47.510;18.966;2022-10-31T06:13:55;98279.75;;;9.32;100.00
42285;BME280;27942;47.510;18.966;2022-10-31T06:16:21;98280.56;;;9.33;100.00
42285;BME280;27942;47.510;18.966;2022-10-31T06:18:48;98294.69;;;9.38;100.00
42285;BME280;27942;47.510;18.966;2022-10-31T06:21:13;98280.50;;;9.41;100.00
42285;BME280;27942;47.510;18.966;2022-10-31T06:23:38;98270.16;;;9.35;100.00
42285;BME280;27942;47.510;18.966;2022-10-31T06:26:04;98277.31;;;9.39;100.00
42285;BME280;27942;47.510;18.966;2022-10-31T06:28:29;98278.09;;;9.40;100.00
42285;BME280;27942;47.510;18.966;2022-10-31T06:30:55;98283.31;;;9.45;100.00
42285;BME280;27942;47.510;18.966;2022-10-31T06:33:20;98287.09;;;9.53;100.00
42285;BME280;27942;47.510;18.966;2022-10-31T06:35:46;98286.28;;;9.52;100.00
42285;BME280;27942;47.510;18.966;2022-10-31T06:38:12;98287.88;;;9.53;100.00
42285;BME280;27942;47.510;18.966;2022-10-31T06:40:38;98310.75;;;9.64;100.00
42285;BME280;27942;47.510;18.966;2022-10-31T06:43:03;98310.56;;;9.69;100.00
42285;BME280;27942;47.510;18.966;2022-10-31T06:45:28;98304.00;;;9.70;100.00
42285;BME280;27942;47.510;18.966;2022-10-31T06:47:55;98303.28;;;9.61;100.00
42285;BME280;27942;47.510;18.966;2022-10-31T06:50:22;98305.94;;;9.70;100.00
42285;BME280;27942;47.510;18.966;2022-10-31T06:52:51;98310.75;;;9.64;100.00
42285;BME280;27942;47.510;18.966;2022-10-31T06:55:17;98317.56;;;9.70;100.00
42285;BME280;27942;47.510;18.966;2022-10-31T06:57:49;98311.44;;;9.61;100.00
42285;BME280;27942;47.510;18.966;2022-10-31T07:00:14;98317.09;;;9.68;100.00
42285;BME280;27942;47.510;18.966;2022-10-31T07:02:40;98308.72;;;9.61;100.00
42285;BME280;27942;47.510;18.966;2022-10-31T07:05:05;98315.38;;;9.64;100.00
42285;BME280;27942;47.510;18.966;2022-10-31T07:07:31;98325.00;;;9.61;100.00
42285;BME280;27942;47.510;18.966;2022-10-31T07:09:56;98322.28;;;9.61;100.00
42285;BME280;27942;47.510;18.966;2022-10-31T07:12:21;98302.94;;;9.63;100.00
42285;BME280;27942;47.510;18.966;2022-10-31T07:14:47;98313.47;;;9.64;100.00
42285;BME280;27942;47.510;18.966;2022-10-31T07:17:12;98324.50;;;9.80;100.00
42285;BME280;27942;47.510;18.966;2022-10-31T07:19:37;98308.97;;;9.68;100.00
42285;BME280;27942;47.510;18.966;2022-10-31T07:22:03;98313.38;;;9.73;100.00
42285;BME280;27942;47.510;18.966;2022-10-31T07:24:28;98309.88;;;9.72;100.00
42285;BME280;27942;47.510;18.966;2022-10-31T07:26:54;98312.59;;;9.72;100.00
42285;BME280;27942;47.510;18.966;2022-10-31T07:29:19;98314.09;;;9.82;100.00
42285;BME280;27942;47.510;18.966;2022-10-31T07:31:46;98304.97;;;9.87;100.00
42285;BME280;27942;47.510;18.966;2022-10-31T07:34:11;98322.50;;;9.89;100.00
42285;BME280;27942;47.510;18.966;2022-10-31T07:36:36;98322.38;;;9.86;100.00
42285;BME280;27942;47.510;18.966;2022-10-31T07:39:02;98339.38;;;9.95;100.00
42285;BME280;27942;47.510;18.966;2022-10-31T07:41:27;98329.53;;;9.90;100.00
42285;BME280;27942;47.510;18.966;2022-10-31T07:43:52;98337.31;;;9.92;100.00
42285;BME280;27942;47.510;18.966;2022-10-31T07:46:18;98335.22;;;9.97;100.00
42285;BME280;27942;47.510;18.966;2022-10-31T07:48:43;98327.81;;;9.86;100.00
42285;BME280;27942;47.510;18.966;2022-10-31T07:51:08;98338.00;;;9.89;100.00
42285;BME280;27942;47.510;18.966;2022-10-31T07:53:34;98340.25;;;9.87;100.00
42285;BME280;27942;47.510;18.966;2022-10-31T07:55:59;98327.75;;;9.73;100.00
42285;BME280;27942;47.510;18.966;2022-10-31T07:58:24;98336.94;;;9.81;100.00
42285;BME280;27942;47.510;18.966;2022-10-31T08:00:50;98329.00;;;9.76;100.00
42285;BME280;27942;47.510;18.966;2022-10-31T08:03:17;98322.53;;;9.68;100.00
42285;BME280;27942;47.510;18.966;2022-10-31T08:05:43;98337.16;;;9.76;100.00
42285;BME280;27942;47.510;18.966;2022-10-31T08:08:13;98337.94;;;9.77;100.00
42285;BME280;27942;47.510;18.966;2022-10-31T08:10:38;98333.38;;;9.68;100.00
42285;BME280;27942;47.510;18.966;2022-10-31T08:13:10;98342.13;;;9.74;100.00
42285;BME280;27942;47.510;18.966;2022-10-31T08:15:36;98342.44;;;9.72;100.00
42285;BME280;27942;47.510;18.966;2022-10-31T08:18:14;98336.22;;;9.72;100.00
42285;BME280;27942;47.510;18.966;2022-10-31T08:20:40;98333.78;;;9.79;100.00
42285;BME280;27942;47.510;18.966;2022-10-31T08:23:06;98350.97;;;9.83;100.00
42285;BME280;27942;47.510;18.966;2022-10-31T08:25:33;98346.66;;;9.82;100.00
42285;BME280;27942;47.510;18.966;2022-10-31T08:27:59;98339.78;;;9.85;100.00
42285;BME280;27942;47.510;18.966;2022-10-31T08:30:27;98350.78;;;9.88;100.00
42285;BME280;27942;47.510;18.966;2022-10-31T08:33:00;98344.09;;;9.86;100.00
42285;BME280;27942;47.510;18.966;2022-10-31T08:35:25;98331.44;;;9.90;100.00
42285;BME280;27942;47.510;18.966;2022-10-31T08:37:55;98333.69;;;9.88;100.00
42285;BME280;27942;47.510;18.966;2022-10-31T08:40:20;98333.22;;;9.86;100.00
42285;BME280;27942;47.510;18.966;2022-10-31T08:42:46;98341.75;;;9.96;100.00
42285;BME280;27942;47.510;18.966;2022-10-31T08:45:11;98340.16;;;9.95;100.00
42285;BME280;27942;47.510;18.966;2022-10-31T08:47:36;98336.28;;;9.84;100.00
42285;BME280;27942;47.510;18.966;2022-10-31T08:50:02;98341.16;;;9.91;100.00
42285;BME280;27942;47.510;18.966;2022-10-31T08:52:27;98345.47;;;9.92;100.00
42285;BME280;27942;47.510;18.966;2022-10-31T08:54:53;98346.06;;;9.97;100.00
42285;BME280;27942;47.510;18.966;2022-10-31T08:57:18;98343.34;;;9.97;100.00
42285;BME280;27942;47.510;18.966;2022-10-31T08:59:43;98343.28;;;9.85;100.00
42285;BME280;27942;47.510;18.966;2022-10-31T09:02:09;98344.22;;;9.89;100.00
42285;BME280;27942;47.510;18.966;2022-10-31T09:04:34;98337.31;;;9.92;100.00
42285;BME280;27942;47.510;18.966;2022-10-31T09:06:59;98342.22;;;9.98;100.00
42285;BME280;27942;47.510;18.966;2022-10-31T09:09:24;98344.59;;;10.00;100.00
42285;BME280;27942;47.510;18.966;2022-10-31T09:11:50;98351.59;;;10.01;100.00
42285;BME280;27942;47.510;18.966;2022-10-31T09:14:15;98340.53;;;10.06;100.00
42285;BME280;27942;47.510;18.966;2022-10-31T09:16:40;98361.91;;;10.29;100.00
42285;BME280;27942;47.510;18.966;2022-10-31T09:19:06;98352.97;;;10.28;100.00
42285;BME280;27942;47.510;18.966;2022-10-31T09:21:31;98343.09;;;10.23;100.00
42285;BME280;27942;47.510;18.966;2022-10-31T09:23:56;98365.75;;;10.28;100.00
42285;BME280;27942;47.510;18.966;2022-10-31T09:26:21;98360.31;;;10.28;100.00
42285;BME280;27942;47.510;18.966;2022-10-31T09:28:47;98355.59;;;10.16;100.00
42285;BME280;27942;47.510;18.966;2022-10-31T09:31:12;98353.25;;;10.14;100.00
42285;BME280;27942;47.510;18.966;2022-10-31T09:33:38;98360.31;;;10.28;100.00
42285;BME280;27942;47.510;18.966;2022-10-31T09:36:03;98353.31;;;10.27;100.00
42285;BME280;27942;47.510;18.966;2022-10-31T09:38:28;98356.94;;;10.31;100.00
42285;BME280;27942;47.510;18.966;2022-10-31T09:46:30;98359.56;;;10.39;100.00
42285;BME280;27942;47.510;18.966;2022-10-31T09:52:26;98355.81;;;10.44;100.00
42285;BME280;27942;47.510;18.966;2022-10-31T09:54:56;98363.19;;;10.43;100.00
42285;BME280;27942;47.510;18.966;2022-10-31T09:57:34;98352.75;;;10.33;100.00
42285;BME280;27942;47.510;18.966;2022-10-31T10:00:03;98352.53;;;10.38;100.00
42285;BME280;27942;47.510;18.966;2022-10-31T10:02:43;98354.38;;;10.46;100.00
42285;BME280;27942;47.510;18.966;2022-10-31T10:05:13;98347.44;;;10.37;100.00
42285;BME280;27942;47.510;18.966;2022-10-31T10:18:58;98359.50;;;10.60;100.00
42285;BME280;27942;47.510;18.966;2022-10-31T10:29:51;98345.25;;;10.63;100.00
42285;BME280;27942;47.510;18.966;2022-10-31T10:32:23;98346.34;;;10.62;100.00
42285;BME280;27942;47.510;18.966;2022-10-31T10:34:54;98349.75;;;10.59;100.00
42285;BME280;27942;47.510;18.966;2022-10-31T10:40:01;98329.34;;;10.41;100.00
42285;BME280;27942;47.510;18.966;2022-10-31T10:42:31;98348.59;;;10.48;100.00
42285;BME280;27942;47.510;18.966;2022-10-31T10:45:19;98342.38;;;10.47;100.00
42285;BME280;27942;47.510;18.966;2022-10-31T10:48:27;98339.31;;;10.49;100.00
42285;BME280;27942;47.510;18.966;2022-10-31T10:50:55;98330.94;;;10.42;100.00
42285;BME280;27942;47.510;18.966;2022-10-31T10:53:46;98341.59;;;10.47;100.00
42285;BME280;27942;47.510;18.966;2022-10-31T10:58:59;98330.94;;;10.42;100.00
42285;BME280;27942;47.510;18.966;2022-10-31T11:01:25;98341.44;;;10.43;100.00
42285;BME280;27942;47.510;18.966;2022-10-31T11:03:50;98332.72;;;10.38;100.00
42285;BME280;27942;47.510;18.966;2022-10-31T11:06:21;98331.03;;;10.33;100.00
42285;BME280;27942;47.510;18.966;2022-10-31T11:08:47;98332.84;;;10.41;100.00
42285;BME280;27942;47.510;18.966;2022-10-31T11:13:43;98329.78;;;10.43;100.00
42285;BME280;27942;47.510;18.966;2022-10-31T11:16:15;98320.94;;;10.34;100.00
42285;BME280;27942;47.510;18.966;2022-10-31T11:18:53;98329.78;;;10.43;100.00
42285;BME280;27942;47.510;18.966;2022-10-31T11:21:37;98329.66;;;10.39;100.00
42285;BME280;27942;47.510;18.966;2022-10-31T11:24:23;98330.28;;;10.45;100.00
42285;BME280;27942;47.510;18.966;2022-10-31T11:26:51;98314.72;;;10.33;100.00
42285;BME280;27942;47.510;18.966;2022-10-31T11:29:28;98315.53;;;10.34;100.00
42285;BME280;27942;47.510;18.966;2022-10-31T11:31:56;98321.53;;;10.39;100.00
42285;BME280;27942;47.510;18.966;2022-10-31T11:36:47;98302.41;;;10.36;100.00
42285;BME280;27942;47.510;18.966;2022-10-31T11:39:20;98314.63;;;10.42;100.00
42285;BME280;27942;47.510;18.966;2022-10-31T11:41:48;98308.75;;;10.40;100.00
42285;BME280;27942;47.510;18.966;2022-10-31T11:44:26;98300.81;;;10.35;100.00
42285;BME280;27942;47.510;18.966;2022-10-31T11:46:55;98305.34;;;10.31;100.00
42285;BME280;27942;47.510;18.966;2022-10-31T11:49:34;98307.72;;;10.32;100.00
42285;BME280;27942;47.510;18.966;2022-10-31T11:52:21;98320.41;;;10.40;100.00
42285;BME280;27942;47.510;18.966;2022-10-31T11:54:57;98319.63;;;10.40;100.00
42285;BME280;27942;47.510;18.966;2022-10-31T11:57:41;98318.38;;;10.37;100.00
42285;BME280;27942;47.510;18.966;2022-10-31T12:00:27;98318.00;;;10.39;100.00
42285;BME280;27942;47.510;18.966;2022-10-31T12:06:02;98319.94;;;10.38;100.00
42285;BME280;27942;47.510;18.966;2022-10-31T12:08:31;98312.00;;;10.33;100.00
42285;BME280;27942;47.510;18.966;2022-10-31T12:17:00;98319.81;;;10.35;100.00
42285;BME280;27942;47.510;18.966;2022-10-31T12:19:32;98322.44;;;10.31;100.00
42285;BME280;27942;47.510;18.966;2022-10-31T12:22:18;98323.66;;;10.34;100.00
42285;BME280;27942;47.510;18.966;2022-10-31T12:24:52;98318.25;;;10.34;100.00
42285;BME280;27942;47.510;18.966;2022-10-31T12:30:19;98320.94;;;10.34;100.00
42285;BME280;27942;47.510;18.966;2022-10-31T12:33:08;98320.94;;;10.34;100.00
42285;BME280;27942;47.510;18.966;2022-10-31T12:35:47;98316.66;;;10.33;100.00
42285;BME280;27942;47.510;18.966;2022-10-31T12:41:09;98314.72;;;10.33;100.00
42285;BME280;27942;47.510;18.966;2022-10-31T12:43:44;98305.22;;;10.27;100.00
42285;BME280;27942;47.510;18.966;2022-10-31T12:46:28;98300.81;;;10.35;100.00
42285;BME280;27942;47.510;18.966;2022-10-31T12:49:17;98316.00;;;10.36;100.00
42285;BME280;27942;47.510;18.966;2022-10-31T12:54:20;98302.81;;;10.26;100.00
42285;BME280;27942;47.510;18.966;2022-10-31T12:57:01;98300.09;;;10.26;100.00
42285;BME280;27942;47.510;18.966;2022-10-31T12:59:43;98297.13;;;10.18;100.00
42285;BME280;27942;47.510;18.966;2022-10-31T13:02:20;98311.63;;;10.22;100.00
42285;BME280;27942;47.510;18.966;2022-10-31T13:07:23;98304.09;;;10.28;100.00
42285;BME280;27942;47.510;18.966;2022-10-31T13:10:05;98308.78;;;10.19;100.00
42285;BME280;27942;47.510;18.966;2022-10-31T13:12:34;98291.72;;;10.18;100.00
42285;BME280;27942;47.510;18.966;2022-10-31T13:15:05;98300.94;;;10.26;100.00
42285;BME280;27942;47.510;18.966;2022-10-31T13:17:40;98288.19;;;10.18;100.00
42285;BME280;27942;47.510;18.966;2022-10-31T13:22:41;98290.56;;;10.07;100.00
42285;BME280;27942;47.510;18.966;2022-10-31T13:25:29;98291.59;;;10.15;100.00
42285;BME280;27942;47.510;18.966;2022-10-31T13:28:03;98294.63;;;10.13;100.00
42285;BME280;27942;47.510;18.966;2022-10-31T13:30:33;98291.72;;;10.18;100.00
42285;BME280;27942;47.510;18.966;2022-10-31T13:33:08;98295.09;;;10.15;100.00
42285;BME280;27942;47.510;18.966;2022-10-31T13:35:43;98283.25;;;9.87;100.00
42285;BME280;27942;47.510;18.966;2022-10-31T13:43:31;98300.72;;;10.10;100.00
42285;BME280;27942;47.510;18.966;2022-10-31T13:45:58;98296.22;;;10.02;100.00
42285;BME280;27942;47.510;18.966;2022-10-31T13:48:39;98294.16;;;9.99;100.00
42285;BME280;27942;47.510;18.966;2022-10-31T13:51:09;98303.09;;;9.99;100.00
42285;BME280;27942;47.510;18.966;2022-10-31T13:56:18;98294.81;;;9.96;100.00
42285;BME280;27942;47.510;18.966;2022-10-31T14:01:29;98287.69;;;9.91;100.00
42285;BME280;27942;47.510;18.966;2022-10-31T14:04:02;98291.66;;;9.94;100.00
42285;BME280;27942;47.510;18.966;2022-10-31T14:07:04;98298.94;;;10.02;100.00
42285;BME280;27942;47.510;18.966;2022-10-31T14:09:48;98293.50;;;10.02;100.00
42285;BME280;27942;47.510;18.966;2022-10-31T14:14:55;98291.66;;;9.94;100.00
42285;BME280;27942;47.510;18.966;2022-10-31T14:17:26;98294.03;;;9.95;100.00
42285;BME280;27942;47.510;18.966;2022-10-31T14:22:37;98292.97;;;9.88;100.00
42285;BME280;27942;47.510;18.966;2022-10-31T14:27:51;98284.66;;;9.93;100.00
42285;BME280;27942;47.510;18.966;2022-10-31T14:30:20;98292.09;;;9.96;100.00
42285;BME280;27942;47.510;18.966;2022-10-31T14:32:52;98288.47;;;9.92;100.00
42285;BME280;27942;47.510;18.966;2022-10-31T14:35:20;98279.09;;;9.89;100.00
42285;BME280;27942;47.510;18.966;2022-10-31T14:43:51;98294.81;;;9.96;100.00
42285;BME280;27942;47.510;18.966;2022-10-31T14:52:08;98284.25;;;9.82;100.00
42285;BME280;27942;47.510;18.966;2022-10-31T14:54:42;98275.78;;;9.84;100.00
42285;BME280;27942;47.510;18.966;2022-10-31T14:57:25;98295.66;;;9.76;100.00
42285;BME280;27942;47.510;18.966;2022-10-31T14:59:55;98283.25;;;9.54;100.00